KMLU/MLU METAR and TAF weather

Enter ICAO airport designator
Station Type Date Time Source
KMLU METAR 2019/04/25 07:53 UTC NOAA

KMLU 250753Z AUTO 17010KT 6SM -TSRA BR SCT050 BKN075 OVC110 17/16 A2980 RMK AO2 PK WND 27033/0725 WSHFT 0715 LTG DSNT ALQDS RAB25 TSB22 SLP089 P0028 T01720156


Station Type Date Time Source
KMLU Decoded METAR 2019/04/25 07:53 UTC NOAA

MONROE REGIONAL AIRPORT, LA, United States (KMLU) 32-31N 092-02W 29M
Apr 25, 2019 - 03:53 AM EDT / 2019.04.25 0753 UTC
Wind: from the S (170 degrees) at 12 MPH (10 KT):0
Visibility: 6 mile(s):0
Sky conditions: overcast
Weather: light rain with thunder; mist; Lightning observed
Precipitation last hour: 0.28 inches
Temperature: 63.0 F (17.2 C)
Dew Point: 60.1 F (15.6 C)
Relative Humidity: 90%
Pressure (altimeter): 29.8 in. Hg (1009 hPa)
ob: KMLU 250753Z AUTO 17010KT 6SM -TSRA BR SCT050 BKN075 OVC110 17/16 A2980 RMK AO2 PK WND 27033/0725 WSHFT 0715 LTG DSNT ALQDS RAB25 TSB22 SLP089 P0028 T01720156
cycle: 8

Station Type Date Time Source
KMLU TAF 2019/04/25 06:22 UTC NOAA

TAF KMLU 250520Z 2506/2606 18008KT P6SM BKN045
FM250800 18008KT P6SM VCTS BKN020CB
TEMPO 2508/2512 VRB15G30KT 2SM TSRA BR BKN015CB
FM251200 21008KT P6SM VCSH BKN015
FM251400 25011KT P6SM BKN015
FM251600 25011KT P6SM BKN023
FM252000 28012KT P6SM BKN030

Example: see airport list